York, NE

1:20 AM CDT on May 25, 2017 (GMT -0500)
York Municipal

Weather History for KJYR - December, 2013

Change the Weather History Date:

Monday, December 9, 2013

  Actual Average Record
Temperature  
Mean Temperature 2 °F -  
Max Temperature 14 °F 38 °F 68 °F (1957)
Min Temperature -9 °F 19 °F -9 °F (2013)
Degree Days  
Heating Degree Days 62    
Moisture  
Dew Point -4 °F    
Average Humidity 72    
Maximum Humidity 92    
Minimum Humidity 62    
Precipitation  
Precipitation 0.00 in - - ()
Sea Level Pressure  
Sea Level Pressure 30.19 in    
Wind  
Wind Speed 11 mph (WSW)    
Max Wind Speed 23 mph    
Max Gust Speed 28 mph    
Visibility 10 miles    
Events      
Averages and records for this station are not official NWS values.
T = Trace of Precipitation, MM = Missing Value Source: NWS Daily Summary

Daily Weather History Graph

Daily Weather History Graph

Search for Another Location

Airport or City:

Trip Planner

Search our weather history database for the weather conditions in past years. The results will help you decide how hot, cold, wet, or windy it might be!

Date:

Astronomy

Dec. 09, 2013 Rise Set
Actual Time 7:43 AM CST 5:02 PM CST
Civil Twilight 7:12 AM CST 5:33 PM CST
Nautical Twilight 6:38 AM CST 6:07 PM CST
Astronomical Twilight 6:04 AM CST 6:41 PM CST
Moon 12:34 PM CST (12/9) No Moon Set
Length of Visible Light 10h 20m
Length of Day
9h 18m
Waxing Crescent, 51% of the Moon is Illuminated
Dec 9
Waxing Crescent
Dec 17
Full
Dec 25
Last Quarter
Jan 1
New
Jan 7
First Quarter

Hourly Weather History & Observations

Time (CST) Temp. Windchill Dew Point Humidity Pressure Visibility Wind Dir Wind Speed Gust Speed Precip Events Conditions
12:15 AM 3.2 °F -11.3 °F -0.4 °F 85% 30.16 in 10.0 mi NW 9.2 mph - N/A   Clear
12:35 AM 1.4 °F -15.3 °F -0.4 °F 92% 30.16 in 10.0 mi NW 11.5 mph - N/A   Clear
12:55 AM 1.4 °F -15.3 °F -2.2 °F 85% 30.16 in 10.0 mi NW 11.5 mph - N/A   Clear
1:15 AM 1.4 °F -16.9 °F -2.2 °F 85% 30.16 in 10.0 mi NW 13.8 mph - N/A   Clear
1:35 AM 1.4 °F -16.9 °F -2.2 °F 85% 30.16 in 10.0 mi NW 13.8 mph - N/A   Clear
1:55 AM 1.4 °F -16.1 °F -4.0 °F 78% 30.15 in 10.0 mi NNW 12.7 mph - N/A   Clear
2:15 AM -0.4 °F -19.2 °F -5.8 °F 78% 30.15 in 10.0 mi NW 13.8 mph - N/A   Clear
2:35 AM -0.4 °F -17.6 °F -7.6 °F 72% 30.17 in 10.0 mi NW 11.5 mph - N/A   Clear
2:55 AM -0.4 °F -16.7 °F -9.4 °F 66% 30.18 in 10.0 mi NW 10.4 mph - N/A   Clear
3:15 AM -2.2 °F -18.9 °F -11.2 °F 66% 30.18 in 10.0 mi NW 10.4 mph - N/A   Clear
3:35 AM -4.0 °F -21.2 °F -11.2 °F 71% 30.20 in 10.0 mi WNW 10.4 mph - N/A   Clear
3:55 AM -4.0 °F -22.1 °F -11.2 °F 71% 30.20 in 10.0 mi WNW 11.5 mph - N/A   Clear
4:35 AM -7.6 °F -27.5 °F -13.0 °F 77% 30.21 in 10.0 mi WNW 12.7 mph - N/A   Clear
4:55 AM -4.0 °F -23.0 °F -11.2 °F 71% 30.21 in 10.0 mi WNW 12.7 mph - N/A   Partly Cloudy
5:15 AM -7.6 °F -27.5 °F -13.0 °F 77% 30.22 in 10.0 mi WNW 12.7 mph - N/A   Clear
5:35 AM -4.0 °F -20.2 °F - N/A% 30.23 in 10.0 mi WNW 9.2 mph - N/A   Scattered Clouds
5:55 AM -9.4 °F -25.6 °F -16.6 °F 71% 30.24 in 10.0 mi WNW 8.1 mph - N/A   Mostly Cloudy
6:15 AM -9.4 °F -22.7 °F -16.6 °F 71% 30.24 in 10.0 mi WNW 5.8 mph - N/A   Scattered Clouds
6:35 AM -7.6 °F -24.6 °F -13.0 °F 77% 30.25 in 10.0 mi WNW 9.2 mph - N/A   Partly Cloudy
6:55 AM -4.0 °F -23.0 °F -13.0 °F 65% 30.25 in 10.0 mi NW 12.7 mph - N/A   Clear
7:15 AM -5.8 °F -25.2 °F -13.0 °F 71% 30.26 in 10.0 mi WNW 12.7 mph - N/A   Clear
7:35 AM -4.0 °F -22.1 °F - N/A% 30.27 in 10.0 mi WNW 11.5 mph - N/A   Partly Cloudy
7:55 AM -5.8 °F -24.4 °F -13.0 °F 71% 30.28 in 10.0 mi WNW 11.5 mph - N/A   Clear
8:15 AM -7.6 °F -23.4 °F -13.0 °F 77% 30.28 in 10.0 mi WNW 8.1 mph - N/A   Clear
8:35 AM -9.4 °F -25.6 °F -16.6 °F 71% 30.28 in 10.0 mi WNW 8.1 mph - N/A   Clear
8:55 AM -7.6 °F -23.4 °F -13.0 °F 77% 30.28 in 10.0 mi West 8.1 mph - N/A   Clear
9:15 AM -5.8 °F -22.4 °F -13.0 °F 71% 30.29 in 10.0 mi West 9.2 mph - N/A   Clear
9:35 AM -2.2 °F -18.9 °F -9.4 °F 71% 30.30 in 10.0 mi West 10.4 mph - N/A   Clear
9:55 AM -0.4 °F -15.7 °F -7.6 °F 72% 30.30 in 10.0 mi West 9.2 mph - N/A   Clear
10:15 AM -0.4 °F -14.7 °F -7.6 °F 72% 30.31 in 10.0 mi West 8.1 mph - N/A   Clear
10:35 AM 1.4 °F -11.3 °F -5.8 °F 72% 30.31 in 10.0 mi West 6.9 mph - N/A   Clear
10:55 AM 3.2 °F -7.8 °F -4.0 °F 72% 30.30 in 10.0 mi West 5.8 mph - N/A   Clear
11:15 AM 5.0 °F -9.1 °F -4.0 °F 66% 30.30 in 10.0 mi WSW 9.2 mph - N/A   Clear
11:35 AM 5.0 °F -9.1 °F -2.2 °F 72% 30.29 in 10.0 mi WSW 9.2 mph - N/A   Clear
11:55 AM 6.8 °F -5.9 °F -2.2 °F 67% 30.28 in 10.0 mi WSW 8.1 mph - N/A   Clear
12:15 PM 8.6 °F -1.3 °F -0.4 °F 67% 30.27 in 10.0 mi West 5.8 mph - N/A   Clear
12:35 PM 8.6 °F -1.3 °F -0.4 °F 67% 30.25 in 10.0 mi SW 5.8 mph - N/A   Clear
12:55 PM 8.6 °F -3.7 °F -0.4 °F 67% 30.24 in 10.0 mi SSW 8.1 mph - N/A   Clear
1:15 PM 8.6 °F -2.6 °F -0.4 °F 67% 30.23 in 10.0 mi SW 6.9 mph - N/A   Clear
1:35 PM 10.4 °F -0.4 °F -0.4 °F 62% 30.22 in 10.0 mi WSW 6.9 mph - N/A   Clear
1:55 PM 10.4 °F -2.4 °F -0.4 °F 62% 30.21 in 10.0 mi SW 9.2 mph - N/A   Clear
2:15 PM 10.4 °F -2.4 °F 1.4 °F 67% 30.20 in 10.0 mi SSW 9.2 mph - N/A   Clear
2:35 PM 12.2 °F 0.7 °F 1.4 °F 62% 30.19 in 10.0 mi SW 8.1 mph - N/A   Clear
2:55 PM 10.4 °F -3.3 °F 1.4 °F 67% 30.19 in 10.0 mi SSW 10.4 mph - N/A   Clear
3:15 PM 10.4 °F -2.4 °F 1.4 °F 67% 30.18 in 10.0 mi SSW 9.2 mph - N/A   Clear
3:35 PM 10.4 °F -4.8 °F 1.4 °F 67% 30.18 in 10.0 mi SSW 12.7 mph - N/A   Clear
3:55 PM 10.4 °F -4.8 °F 1.4 °F 67% 30.17 in 10.0 mi SSW 12.7 mph - N/A   Clear
4:15 PM 10.4 °F -4.8 °F 1.4 °F 67% 30.18 in 10.0 mi SSW 12.7 mph - N/A   Clear
4:35 PM 8.6 °F -7.0 °F -0.4 °F 67% 30.17 in 10.0 mi SSW 12.7 mph - N/A   Clear
4:55 PM 8.6 °F -6.3 °F -0.4 °F 67% 30.16 in 10.0 mi SSW 11.5 mph - N/A   Clear
5:15 PM 6.8 °F -10.0 °F -0.4 °F 72% 30.16 in 10.0 mi SW 13.8 mph - N/A   Clear
5:35 PM 6.8 °F -7.8 °F -0.4 °F 72% 30.17 in 10.0 mi SSW 10.4 mph - N/A   Clear
5:55 PM 5.0 °F -10.0 °F -2.2 °F 72% 30.16 in 10.0 mi SSW 10.4 mph - N/A   Clear
6:15 PM 3.2 °F -11.3 °F -2.2 °F 78% 30.16 in 10.0 mi SSW 9.2 mph - N/A   Clear
6:35 PM 1.4 °F -13.5 °F -2.2 °F 85% 30.15 in 10.0 mi SSW 9.2 mph - N/A   Clear
6:55 PM 1.4 °F -15.3 °F -2.2 °F 85% 30.15 in 10.0 mi SSW 11.5 mph - N/A   Clear
7:15 PM 5.0 °F -11.6 °F -0.4 °F 78% 30.14 in 10.0 mi SSW 12.7 mph - N/A   Clear
7:35 PM 6.8 °F -10.7 °F -0.4 °F 72% 30.13 in 10.0 mi SW 15.0 mph - N/A   Clear
7:55 PM 8.6 °F -11.0 °F -0.4 °F 67% 30.12 in 10.0 mi SSW 20.7 mph 26.5 mph N/A   Clear
8:15 PM 8.6 °F -10.0 °F 1.4 °F 73% 30.11 in 10.0 mi SSW 18.4 mph 24.2 mph N/A   Clear
8:35 PM 8.6 °F -9.5 °F 1.4 °F 73% 30.11 in 10.0 mi SW 17.3 mph 24.2 mph N/A   Clear
8:55 PM 10.4 °F -8.2 °F 1.4 °F 67% 30.10 in 10.0 mi SW 19.6 mph 24.2 mph N/A   Clear
9:15 PM 10.4 °F -7.2 °F 1.4 °F 67% 30.10 in 10.0 mi SW 17.3 mph - N/A   Clear
9:35 PM 10.4 °F -8.2 °F 3.2 °F 73% 30.08 in 10.0 mi SW 19.6 mph 24.2 mph N/A   Partly Cloudy
9:55 PM 12.2 °F -6.3 °F 3.2 °F 67% 30.07 in 10.0 mi SW 20.7 mph 26.5 mph N/A   Partly Cloudy
10:15 PM 12.2 °F -5.8 °F 5.0 °F 73% 30.07 in 10.0 mi SW 19.6 mph 24.2 mph N/A   Clear
10:35 PM 14.0 °F -3.9 °F 5.0 °F 67% 30.06 in 10.0 mi SW 20.7 mph 26.5 mph N/A   Clear
10:55 PM 14.0 °F -4.3 °F 5.0 °F 67% 30.06 in 10.0 mi SW 21.9 mph 26.5 mph N/A   Clear
11:15 PM 14.0 °F -4.7 °F 5.0 °F 67% 30.06 in 10.0 mi SW 23.0 mph - N/A   Clear
11:35 PM 14.0 °F -4.3 °F 5.0 °F 67% 30.06 in 10.0 mi WSW 21.9 mph 27.6 mph N/A   Clear
11:55 PM 14.0 °F -1.4 °F 6.8 °F 73% 30.06 in 10.0 mi WSW 15.0 mph - N/A   Clear